Time;durP1;ratioP1;P1;durP2;ratioP2;P2;SDS_P1;SDS_P2;PMS_P1;PMS_P2;Temp;Humidity;BMP_temperature;BMP_pressure;BME280_temperature;BME280_humidity;BME280_pressure;Samples;Min_cycle;Max_cycle;Signal;HPM_P1;HPM_P2
2021/06/14 00:01:53;;;;;;;0.40;0.20;;;;;;;14.54;86.59;101015.06;5037176;28;20502;-80
2021/06/14 00:04:20;;;;;;;0.60;0.60;;;;;;;14.56;86.25;101015.88;5050392;28;20498;-79
2021/06/14 00:06:47;;;;;;;0.40;0.20;;;;;;;14.47;86.42;101012.56;5049774;28;20489;-80
2021/06/14 00:09:19;;;;;;;0.40;0.20;;;;;;;14.11;88.13;101014.59;5050015;28;20504;-80
2021/06/14 00:11:46;;;;;;;0.40;0.20;;;;;;;14.36;87.85;101014.69;5060363;28;20487;-79
2021/06/14 00:14:13;;;;;;;0.40;0.30;;;;;;;14.45;87.40;101014.41;5050341;28;20435;-80
2021/06/14 00:16:40;;;;;;;0.40;0.20;;;;;;;14.48;86.71;101000.94;5046843;28;20447;-80
2021/06/14 00:19:08;;;;;;;0.60;0.60;;;;;;;14.55;85.77;101014.13;5041112;28;20455;-80
2021/06/14 00:21:36;;;;;;;0.50;0.40;;;;;;;14.54;86.51;101009.72;5037189;28;20480;-80
2021/06/14 00:24:04;;;;;;;0.60;0.40;;;;;;;14.18;87.88;101001.91;5050373;28;20861;-80
2021/06/14 00:26:30;;;;;;;0.40;0.20;;;;;;;14.20;88.29;100997.38;5045673;28;20512;-80
2021/06/14 00:28:57;;;;;;;0.40;0.20;;;;;;;14.09;88.29;100994.16;5044023;28;20516;-80
2021/06/14 00:31:24;;;;;;;0.40;0.20;;;;;;;14.36;87.70;100993.28;5045975;28;20541;-79
2021/06/14 00:33:51;;;;;;;0.50;0.40;;;;;;;14.35;87.54;101006.72;5049926;28;20440;-80
2021/06/14 00:36:18;;;;;;;0.50;0.40;;;;;;;14.33;87.99;101004.09;5056108;28;20532;-80
2021/06/14 00:38:44;;;;;;;0.40;0.20;;;;;;;14.45;86.50;100992.16;5042232;28;20930;-80
2021/06/14 00:41:13;;;;;;;0.40;0.20;;;;;;;13.92;88.75;100998.25;5056908;28;20520;-80
2021/06/14 00:43:40;;;;;;;0.40;0.20;;;;;;;14.06;88.57;100995.16;5040686;28;20982;-80
2021/06/14 00:46:07;;;;;;;0.40;0.20;;;;;;;14.03;87.88;100978.34;5045733;28;20447;-80
2021/06/14 00:48:34;;;;;;;0.40;0.30;;;;;;;13.91;89.17;100988.50;5050381;28;20578;-80
2021/06/14 00:51:04;;;;;;;0.40;0.20;;;;;;;13.98;88.53;100982.94;5047082;28;20473;-80
2021/06/14 00:53:37;;;;;;;0.50;0.30;;;;;;;13.83;89.29;100977.16;5043379;28;20447;-80
2021/06/14 00:56:09;;;;;;;0.40;0.20;;;;;;;13.97;89.07;100974.03;5042932;28;20542;-80
2021/06/14 00:58:37;;;;;;;0.40;0.20;;;;;;;13.91;88.67;100984.94;5042765;28;20485;-80
2021/06/14 01:01:05;;;;;;;0.40;0.27;;;;;;;13.62;90.03;100978.69;5042092;28;20977;-79
2021/06/14 01:03:32;;;;;;;0.40;0.20;;;;;;;13.70;89.56;100981.13;5054847;28;20497;-80
2021/06/14 01:06:01;;;;;;;0.40;0.20;;;;;;;13.68;90.53;100974.06;5055619;28;20462;-80
2021/06/14 01:08:31;;;;;;;0.40;0.20;;;;;;;13.84;89.87;100973.59;5043159;28;20875;-80
2021/06/14 01:11:01;;;;;;;0.40;0.20;;;;;;;13.58;91.64;100973.50;5054622;28;20532;-80
2021/06/14 01:13:46;;;;;;;0.40;0.20;;;;;;;13.93;90.31;100985.75;5047053;28;20448;-80
2021/06/14 01:16:32;;;;;;;0.40;0.20;;;;;;;13.69;91.09;100998.06;5052440;28;20462;-80
2021/06/14 01:19:41;;;;;;;0.40;0.20;;;;;;;13.68;91.19;100987.44;5055308;28;20439;-80
2021/06/14 01:22:33;;;;;;;1.43;1.43;;;;;;;13.45;92.54;100980.13;5009078;28;20538;-80
2021/06/14 01:25:58;;;;;;;0.40;0.30;;;;;;;13.50;91.95;100992.41;5029824;28;20495;-80
2021/06/14 01:28:28;;;;;;;0.40;0.20;;;;;;;13.38;92.58;100990.09;5023245;28;20455;-80
2021/06/14 01:30:56;;;;;;;0.40;0.30;;;;;;;13.44;92.50;100987.25;5041613;28;20549;-80
2021/06/14 01:33:28;;;;;;;0.40;0.20;;;;;;;13.48;92.17;100990.72;5053672;28;20459;-80
2021/06/14 01:36:02;;;;;;;0.40;0.20;;;;;;;13.38;93.35;100981.19;5056008;28;20535;-80
2021/06/14 01:38:31;;;;;;;0.40;0.20;;;;;;;13.23;94.46;100994.06;5041948;28;20447;-80
2021/06/14 01:41:02;;;;;;;0.40;0.20;;;;;;;13.17;94.45;100993.34;5047267;28;20471;-80
2021/06/14 01:43:33;;;;;;;0.40;0.20;;;;;;;13.18;94.61;100988.00;5052515;28;21627;-80
2021/06/14 01:46:09;;;;;;;0.40;0.30;;;;;;;13.27;93.82;100971.69;5045671;28;20529;-80
2021/06/14 01:48:39;;;;;;;0.40;0.20;;;;;;;12.95;95.85;100971.69;5052851;28;20458;-79
2021/06/14 01:51:08;;;;;;;0.40;0.20;;;;;;;13.09;96.07;100974.88;5041719;28;20475;-80
2021/06/14 01:53:35;;;;;;;0.40;0.23;;;;;;;13.19;94.81;100972.84;5049595;28;20446;-80
2021/06/14 01:56:04;;;;;;;0.40;0.20;;;;;;;13.32;94.35;100976.94;5048964;28;20458;-80
2021/06/14 01:58:32;;;;;;;0.40;0.30;;;;;;;13.39;94.26;100969.59;5042219;28;20451;-81
2021/06/14 02:01:00;;;;;;;0.40;0.20;;;;;;;13.11;95.77;100961.47;5041768;28;20566;-80
2021/06/14 02:03:28;;;;;;;0.40;0.20;;;;;;;13.20;95.04;100950.56;5054416;28;20688;-80
2021/06/14 02:05:56;;;;;;;0.40;0.20;;;;;;;13.30;94.56;100957.41;5039996;28;20447;-80
2021/06/14 02:08:23;;;;;;;0.40;0.30;;;;;;;13.23;93.97;100956.69;5047863;28;20451;-79
2021/06/14 02:10:50;;;;;;;0.77;0.60;;;;;;;13.07;95.37;100957.16;5062329;28;20561;-79
2021/06/14 02:13:19;;;;;;;0.40;0.20;;;;;;;13.28;94.66;100962.75;5047010;28;20456;-80
2021/06/14 02:15:46;;;;;;;0.40;0.20;;;;;;;12.88;95.28;100943.41;5048515;28;20466;-80
2021/06/14 02:18:14;;;;;;;0.40;0.20;;;;;;;12.95;94.78;100971.69;5047040;28;20447;-79
2021/06/14 02:20:43;;;;;;;0.40;0.20;;;;;;;12.92;94.45;100958.44;5049283;28;20510;-80
2021/06/14 02:23:13;;;;;;;0.40;0.30;;;;;;;12.73;95.66;100955.38;5042293;28;20442;-79
2021/06/14 02:25:41;;;;;;;0.40;0.20;;;;;;;12.67;96.31;100958.22;5040377;28;20439;-80
2021/06/14 02:28:08;;;;;;;0.40;0.20;;;;;;;12.87;95.34;100961.22;5044921;28;20448;-79
2021/06/14 02:30:35;;;;;;;0.40;0.20;;;;;;;12.82;94.99;100955.16;5069945;23;20863;-54
2021/06/14 02:33:02;;;;;;;0.53;0.37;;;;;;;12.75;95.39;100961.59;5025679;28;21002;-53
2021/06/14 02:35:29;;;;;;;1.53;1.00;;;;;;;12.74;96.68;100959.81;5032376;28;20995;-54
2021/06/14 02:38:02;;;;;;;0.40;0.30;;;;;;;12.80;96.25;100953.44;5022156;28;20463;-53
2021/06/14 02:40:31;;;;;;;0.40;0.20;;;;;;;12.75;96.68;100959.78;5026353;28;20454;-54
2021/06/14 02:43:03;;;;;;;1.40;1.40;;;;;;;12.66;96.83;100959.16;5040519;22;20448;-49
2021/06/14 02:45:31;;;;;;;0.40;0.20;;;;;;;12.56;96.68;100968.28;5070554;28;20486;-49
2021/06/14 02:47:58;;;;;;;0.40;0.20;;;;;;;12.61;96.51;100966.38;5071899;28;20477;-49
2021/06/14 02:50:29;;;;;;;0.50;0.40;;;;;;;12.61;96.66;100967.28;5071502;28;20461;-49
2021/06/14 02:52:58;;;;;;;0.40;0.30;;;;;;;12.88;95.92;100959.44;5071446;28;20466;-49
2021/06/14 02:55:39;;;;;;;0.40;0.20;;;;;;;12.36;97.90;100958.16;5044663;28;20442;-50
2021/06/14 02:58:07;;;;;;;1.37;1.37;;;;;;;12.48;97.41;100956.97;5071475;28;20446;-49
2021/06/14 03:00:34;;;;;;;0.40;0.20;;;;;;;12.20;97.00;100947.00;5071729;28;20546;-52
2021/06/14 03:03:04;;;;;;;0.40;0.20;;;;;;;12.32;96.50;100951.13;5071199;28;20450;-52
2021/06/14 03:05:31;;;;;;;0.40;0.20;;;;;;;12.27;97.08;100955.72;5064404;28;20493;-50
2021/06/14 03:08:02;;;;;;;0.40;0.20;;;;;;;12.45;96.11;100947.22;5071287;28;20445;-53
2021/06/14 03:10:31;;;;;;;0.40;0.20;;;;;;;12.37;95.56;100946.56;5048891;28;20443;-50
2021/06/14 03:13:01;;;;;;;0.40;0.20;;;;;;;11.84;98.10;100946.09;5068297;28;20449;-50
2021/06/14 03:15:29;;;;;;;0.40;0.30;;;;;;;12.02;97.86;100944.75;5071213;28;20449;-50
2021/06/14 03:17:56;;;;;;;0.40;0.20;;;;;;;12.25;96.46;100936.22;5057349;28;20519;-51
2021/06/14 03:20:25;;;;;;;0.40;0.20;;;;;;;12.16;97.30;100937.31;5071018;28;20442;-49
2021/06/14 03:22:53;;;;;;;0.40;0.20;;;;;;;12.00;98.14;100933.28;5070609;28;20481;-50
2021/06/14 03:25:21;;;;;;;0.50;0.40;;;;;;;12.10;96.97;100933.03;5071346;28;20493;-50
2021/06/14 03:27:48;;;;;;;0.40;0.20;;;;;;;12.05;97.13;100937.56;5071611;28;20805;-49
2021/06/14 03:30:20;;;;;;;0.40;0.20;;;;;;;12.13;96.35;100937.38;5071552;28;20446;-50
2021/06/14 03:32:48;;;;;;;0.40;0.30;;;;;;;12.27;95.83;100945.91;5071903;28;20442;-49
2021/06/14 03:35:18;;;;;;;0.40;0.20;;;;;;;11.92;96.58;100938.75;5052535;28;20891;-49
2021/06/14 03:37:45;;;;;;;0.40;0.20;;;;;;;11.83;97.38;100937.22;5071654;28;20445;-49
2021/06/14 03:40:13;;;;;;;0.40;0.20;;;;;;;12.03;97.51;100942.06;5071277;28;20450;-50
2021/06/14 03:42:40;;;;;;;0.40;0.20;;;;;;;11.84;97.79;100936.31;5075211;28;20472;-50
2021/06/14 03:45:10;;;;;;;0.87;0.87;;;;;;;11.93;97.63;100935.22;5073524;28;20555;-50
2021/06/14 03:47:37;;;;;;;0.40;0.20;;;;;;;12.15;97.09;100925.78;5075419;28;20450;-50
2021/06/14 03:50:04;;;;;;;0.40;0.20;;;;;;;11.97;98.53;100923.56;5075055;28;20870;-50
2021/06/14 03:52:31;;;;;;;0.40;0.20;;;;;;;12.05;99.35;100931.34;5074957;28;20475;-50
2021/06/14 03:54:57;;;;;;;0.40;0.20;;;;;;;12.24;98.03;100929.13;5074592;28;20470;-49
2021/06/14 03:57:24;;;;;;;0.40;0.40;;;;;;;12.29;98.11;100935.22;5074892;28;20893;-50
2021/06/14 03:59:51;;;;;;;0.40;0.20;;;;;;;12.43;97.03;100941.94;5074669;28;20454;-49
2021/06/14 04:02:17;;;;;;;0.40;0.20;;;;;;;12.56;96.31;100942.50;5074845;28;20449;-50
2021/06/14 04:04:55;;;;;;;0.40;0.20;;;;;;;12.31;97.67;100944.03;5069262;28;20539;-49
2021/06/14 04:07:22;;;;;;;0.40;0.20;;;;;;;12.36;98.29;100943.03;5074830;28;20989;-49
2021/06/14 04:09:49;;;;;;;0.40;0.40;;;;;;;12.01;100.00;100932.34;5063013;28;20451;-50
2021/06/14 04:12:16;;;;;;;0.60;0.37;;;;;;;12.41;99.56;100929.56;5059457;28;20482;-49
2021/06/14 04:14:43;;;;;;;0.40;0.40;;;;;;;12.55;98.85;100935.41;5073819;28;21002;-49
2021/06/14 04:17:10;;;;;;;0.40;0.20;;;;;;;12.26;100.00;100938.84;5061740;28;20458;-50
2021/06/14 04:19:37;;;;;;;0.40;0.20;;;;;;;12.51;99.61;100941.75;5073867;28;20495;-50
2021/06/14 04:22:05;;;;;;;0.40;0.20;;;;;;;12.78;99.01;100933.94;5074086;28;20561;-49
2021/06/14 04:24:31;;;;;;;0.40;0.20;;;;;;;12.95;97.59;100931.69;5073525;28;20493;-50
2021/06/14 04:26:58;;;;;;;0.40;0.20;;;;;;;12.66;99.26;100936.03;5074638;28;20457;-50
2021/06/14 04:29:25;;;;;;;0.40;0.30;;;;;;;13.44;96.75;100941.84;5047491;28;20507;-50
2021/06/14 04:31:52;;;;;;;0.40;0.20;;;;;;;14.13;92.75;100959.28;5073695;28;20450;-50
2021/06/14 04:34:18;;;;;;;0.53;0.53;;;;;;;14.96;87.27;100951.13;5067452;28;20557;-50
2021/06/14 04:36:45;;;;;;;0.40;0.20;;;;;;;15.58;83.07;100942.53;5061076;28;20549;-51
2021/06/14 04:39:12;;;;;;;0.40;0.20;;;;;;;16.03;80.53;100947.91;5074157;28;20484;-50
2021/06/14 04:41:38;;;;;;;0.40;0.20;;;;;;;16.52;78.02;100943.22;5073889;28;20495;-50
2021/06/14 04:44:05;;;;;;;0.40;0.20;;;;;;;16.62;76.47;100936.53;5073511;28;20493;-50
2021/06/14 04:46:32;;;;;;;0.40;0.20;;;;;;;17.22;75.04;100934.75;5073407;28;20555;-51
2021/06/14 04:48:59;;;;;;;0.40;0.20;;;;;;;17.51;74.71;100935.22;5073647;28;20449;-51
2021/06/14 04:51:25;;;;;;;0.40;0.20;;;;;;;17.18;74.35;100934.03;5073140;28;20897;-51
2021/06/14 04:53:52;;;;;;;0.40;0.20;;;;;;;17.68;73.30;100938.91;5073421;28;20553;-50
2021/06/14 04:56:19;;;;;;;0.40;0.30;;;;;;;18.47;71.30;100928.72;5073599;28;20458;-51
2021/06/14 04:58:46;;;;;;;0.40;0.20;;;;;;;18.25;71.86;100920.88;5073553;28;20549;-50
2021/06/14 05:01:13;;;;;;;0.40;0.30;;;;;;;18.70;70.58;100927.56;5073215;28;20476;-50
2021/06/14 05:03:39;;;;;;;0.40;0.20;;;;;;;18.88;69.33;100923.03;5072758;28;21008;-50
2021/06/14 05:06:06;;;;;;;0.40;0.30;;;;;;;18.88;68.52;100925.72;5066341;28;20562;-54
2021/06/14 05:08:34;;;;;;;0.40;0.20;;;;;;;18.80;68.49;100923.44;5073716;28;20508;-51
2021/06/14 05:11:00;;;;;;;0.40;0.23;;;;;;;19.21;68.01;100926.63;5047030;28;21002;-51
2021/06/14 05:13:27;;;;;;;0.40;0.20;;;;;;;18.94;68.64;100922.72;5073496;28;21040;-51
2021/06/14 05:15:54;;;;;;;0.40;0.20;;;;;;;18.70;69.33;100924.88;5071464;28;20455;-51
2021/06/14 05:18:22;;;;;;;0.50;0.40;;;;;;;18.86;69.48;100920.41;5063570;28;20446;-51
2021/06/14 05:20:49;;;;;;;0.40;0.20;;;;;;;19.18;68.37;100912.44;5073340;28;20500;-51
2021/06/14 05:23:15;;;;;;;0.40;0.30;;;;;;;19.16;68.49;100903.56;5073261;28;20523;-51
2021/06/14 05:25:42;;;;;;;0.40;0.20;;;;;;;19.43;67.70;100902.03;5073482;28;20551;-51
2021/06/14 05:28:09;;;;;;;0.40;0.20;;;;;;;19.31;68.11;100894.63;5073654;28;20453;-51
2021/06/14 05:30:35;;;;;;;0.40;0.20;;;;;;;19.74;66.73;100903.09;5073383;28;20454;-50
2021/06/14 05:33:02;;;;;;;0.87;0.43;;;;;;;19.69;66.80;100900.63;5073414;28;20450;-50
2021/06/14 05:35:29;;;;;;;0.40;0.20;;;;;;;19.56;67.84;100896.88;5054803;28;20857;-51
2021/06/14 05:37:56;;;;;;;0.60;0.60;;;;;;;19.45;68.25;100897.44;5073777;28;20534;-51
2021/06/14 05:40:23;;;;;;;0.40;0.20;;;;;;;19.70;67.50;100899.66;5073488;28;20824;-51
2021/06/14 05:42:50;;;;;;;1.03;0.77;;;;;;;19.49;68.17;100895.47;5073492;28;20457;-51
2021/06/14 05:45:17;;;;;;;0.50;0.40;;;;;;;19.50;67.70;100902.59;5073244;28;20491;-51
2021/06/14 05:47:44;;;;;;;0.97;0.97;;;;;;;20.00;66.22;100901.56;5072717;28;20985;-51
2021/06/14 05:50:12;;;;;;;0.40;0.20;;;;;;;19.79;66.41;100893.75;5062966;28;20819;-51
2021/06/14 05:52:39;;;;;;;0.50;0.37;;;;;;;20.64;64.47;100898.66;5057040;28;20457;-51
2021/06/14 05:55:07;;;;;;;0.40;0.30;;;;;;;20.39;65.44;100893.81;5073086;28;20465;-51
2021/06/14 05:57:34;;;;;;;0.50;0.30;;;;;;;20.12;65.79;100896.31;5073204;28;20496;-52
2021/06/14 06:00:03;;;;;;;0.40;0.20;;;;;;;20.94;63.48;100885.09;5072800;28;20442;-51
2021/06/14 06:02:30;;;;;;;0.40;0.20;;;;;;;20.35;66.47;100896.81;5072921;28;20456;-51
2021/06/14 06:04:56;;;;;;;0.50;0.30;;;;;;;20.87;64.04;100888.28;5066972;28;20498;-51
2021/06/14 06:07:23;;;;;;;0.50;0.30;;;;;;;20.62;64.35;100881.66;5073268;28;20476;-51
2021/06/14 06:09:50;;;;;;;2.27;1.63;;;;;;;20.95;64.24;100883.25;5060949;28;20455;-51
2021/06/14 06:12:17;;;;;;;0.60;0.40;;;;;;;21.03;64.46;100882.78;5059170;28;20507;-52
2021/06/14 06:14:44;;;;;;;0.50;0.40;;;;;;;20.92;64.54;100875.34;5072518;28;20470;-52
2021/06/14 06:17:10;;;;;;;0.50;0.20;;;;;;;20.65;65.00;100875.22;5059860;28;20932;-51
2021/06/14 06:19:37;;;;;;;0.50;0.30;;;;;;;20.87;64.98;100882.88;5072581;28;20787;-51
2021/06/14 06:22:04;;;;;;;0.40;0.20;;;;;;;20.28;67.74;100885.47;5072983;28;20449;-52
2021/06/14 06:24:31;;;;;;;0.50;0.30;;;;;;;20.55;66.89;100880.28;5073309;28;20489;-52
2021/06/14 06:26:59;;;;;;;0.50;0.20;;;;;;;20.67;67.28;100887.66;5074064;28;20669;-52
2021/06/14 06:29:27;;;;;;;0.40;0.20;;;;;;;20.54;68.03;100888.50;5046696;28;20483;-52
2021/06/14 06:31:54;;;;;;;0.60;0.57;;;;;;;21.14;64.77;100889.25;5072088;28;20962;-54
2021/06/14 06:34:21;;;;;;;1.10;0.97;;;;;;;21.31;65.37;100892.75;5064837;28;20517;-53
2021/06/14 06:36:48;;;;;;;0.40;0.30;;;;;;;21.51;65.04;100900.47;5059184;28;20527;-53
2021/06/14 06:39:14;;;;;;;0.40;0.20;;;;;;;20.22;68.74;100902.06;5072364;28;20450;-52
2021/06/14 06:41:41;;;;;;;0.60;0.60;;;;;;;20.89;66.16;100887.22;5072521;28;20450;-52
2021/06/14 06:44:09;;;;;;;0.50;0.30;;;;;;;21.51;64.64;100895.91;5072002;28;20978;-52
2021/06/14 06:46:37;;;;;;;0.50;0.30;;;;;;;21.55;64.78;100885.78;5072228;28;20546;-53
2021/06/14 06:49:04;;;;;;;0.50;0.47;;;;;;;21.53;66.05;100885.91;5072168;28;20446;-52
2021/06/14 06:51:32;;;;;;;0.50;0.20;;;;;;;21.47;65.45;100891.69;5071863;28;20930;-52
2021/06/14 06:54:16;;;;;;;0.40;0.20;;;;;;;21.11;66.11;100892.16;5071934;28;20473;-52
2021/06/14 06:56:49;;;;;;;0.50;0.30;;;;;;;21.50;63.78;100888.78;5067434;28;20452;-52
2021/06/14 06:59:16;;;;;;;0.40;0.20;;;;;;;21.71;63.24;100893.78;5054835;28;20969;-52
2021/06/14 07:01:46;;;;;;;0.50;0.20;;;;;;;21.89;62.85;100881.72;5071943;28;20442;-52
2021/06/14 07:04:13;;;;;;;0.40;0.20;;;;;;;22.16;61.56;100871.78;5066664;28;20472;-53
2021/06/14 07:06:40;;;;;;;0.40;0.20;;;;;;;21.66;61.89;100879.69;5069931;28;20501;-52
2021/06/14 07:09:08;;;;;;;0.50;0.30;;;;;;;22.07;62.21;100882.41;5071394;28;20450;-52
2021/06/14 07:11:35;;;;;;;1.20;0.67;;;;;;;22.51;61.46;100883.94;5045821;28;20868;-52
2021/06/14 07:14:02;;;;;;;0.40;0.20;;;;;;;21.97;60.92;100876.69;5049493;28;20482;-53
2021/06/14 07:16:29;;;;;;;0.50;0.30;;;;;;;22.16;60.92;100879.06;5044931;28;20454;-53
2021/06/14 07:18:56;;;;;;;0.50;0.30;;;;;;;22.14;60.74;100862.03;5065004;28;20546;-53
2021/06/14 07:21:23;;;;;;;0.50;0.30;;;;;;;22.29;56.79;100865.56;5056781;28;20473;-53
2021/06/14 07:23:50;;;;;;;0.40;0.20;;;;;;;21.90;57.93;100869.94;5064959;28;20473;-53
2021/06/14 07:26:17;;;;;;;0.40;0.20;;;;;;;22.56;57.07;100865.50;5069620;28;21000;-53
2021/06/14 07:28:44;;;;;;;0.50;0.20;;;;;;;22.72;56.39;100867.03;5067964;28;20454;-53
2021/06/14 07:31:11;;;;;;;0.40;0.20;;;;;;;22.94;55.61;100862.84;5069230;28;20573;-53
2021/06/14 07:33:38;;;;;;;0.50;0.40;;;;;;;22.27;57.31;100865.66;5055176;28;20481;-53
2021/06/14 07:36:08;;;;;;;0.43;0.30;;;;;;;22.56;57.30;100858.22;5051094;28;20502;-53
2021/06/14 07:38:35;;;;;;;0.60;0.60;;;;;;;22.88;55.26;100852.41;5069227;28;20449;-52
2021/06/14 07:41:02;;;;;;;0.40;0.20;;;;;;;23.46;55.47;100849.09;5063647;28;20479;-53
2021/06/14 07:43:29;;;;;;;0.50;0.20;;;;;;;23.82;53.41;100836.50;5070057;28;20954;-54
2021/06/14 07:45:57;;;;;;;0.50;0.30;;;;;;;23.05;53.92;100838.56;5070739;28;20866;-53
2021/06/14 07:48:24;;;;;;;0.50;0.50;;;;;;;23.26;54.73;100842.41;5070219;28;20537;-52
2021/06/14 07:50:55;;;;;;;0.50;0.20;;;;;;;23.29;54.43;100842.19;5070637;28;20460;-53
2021/06/14 07:53:22;;;;;;;0.60;0.40;;;;;;;23.01;54.21;100834.31;5071211;28;20924;-52
2021/06/14 07:55:49;;;;;;;0.50;0.20;;;;;;;22.98;54.03;100846.25;5070742;28;21028;-53
2021/06/14 07:58:15;;;;;;;0.87;0.87;;;;;;;23.04;55.63;100843.09;5071192;28;20461;-53
2021/06/14 08:00:43;;;;;;;0.47;0.20;;;;;;;23.84;53.18;100843.56;5070448;28;20547;-53
2021/06/14 08:03:10;;;;;;;0.43;0.20;;;;;;;23.11;54.74;100831.81;5062302;28;20822;-53
2021/06/14 08:05:38;;;;;;;0.50;0.40;;;;;;;24.01;53.30;100844.16;5063609;28;21029;-53
2021/06/14 08:08:13;;;;;;;0.50;0.40;;;;;;;23.71;51.47;100833.72;5066233;28;20510;-53
2021/06/14 08:10:42;;;;;;;0.50;0.40;;;;;;;23.60;54.06;100834.56;5050166;28;20501;-54
2021/06/14 08:13:09;;;;;;;0.50;0.30;;;;;;;23.67;52.68;100829.53;5054382;28;20447;-54
2021/06/14 08:15:37;;;;;;;0.50;0.20;;;;;;;22.75;53.62;100836.13;5056256;28;20935;-53
2021/06/14 08:18:13;;;;;;;0.50;0.30;;;;;;;22.74;53.85;100827.13;5044344;28;20515;-52
2021/06/14 08:20:58;;;;;;;0.47;0.20;;;;;;;23.64;52.75;100822.47;5068283;28;20446;-53
2021/06/14 08:26:29;;;;;;;0.80;0.80;;;;;;;24.06;51.95;100823.81;5045473;28;20555;-53
2021/06/14 08:28:58;;;;;;;0.60;0.30;;;;;;;23.80;52.70;100822.19;5068223;28;20450;-54
2021/06/14 08:31:26;;;;;;;0.70;0.70;;;;;;;23.68;51.01;100818.53;5057459;28;20486;-53
2021/06/14 08:33:53;;;;;;;0.63;0.50;;;;;;;23.74;52.89;100817.25;5060360;28;20993;-54
2021/06/14 08:36:20;;;;;;;0.47;0.20;;;;;;;23.55;52.29;100823.97;5030005;28;20452;-54
2021/06/14 08:38:47;;;;;;;0.57;0.50;;;;;;;23.33;52.14;100818.44;5063750;28;20449;-54
2021/06/14 08:41:20;;;;;;;0.50;0.20;;;;;;;23.82;51.70;100812.94;5069621;28;20457;-54
2021/06/14 08:43:49;;;;;;;0.50;0.20;;;;;;;24.42;50.56;100812.00;5056155;28;20495;-54
2021/06/14 08:46:16;;;;;;;1.00;0.90;;;;;;;24.68;50.34;100811.78;5069230;28;20844;-54
2021/06/14 08:48:44;;;;;;;0.50;0.40;;;;;;;23.78;50.63;100816.00;5069162;28;20471;-54
2021/06/14 08:51:12;;;;;;;0.50;0.37;;;;;;;23.48;50.84;100808.28;5068457;28;20544;-53
2021/06/14 08:53:41;;;;;;;0.50;0.20;;;;;;;23.89;51.31;100807.94;5068898;28;20917;-53
2021/06/14 08:56:08;;;;;;;0.50;0.37;;;;;;;24.03;50.30;100805.03;5064398;28;20905;-54
2021/06/14 08:58:36;;;;;;;0.50;0.30;;;;;;;24.13;51.15;100814.22;5068013;28;20450;-54
2021/06/14 09:01:04;;;;;;;0.50;0.40;;;;;;;23.69;50.53;100823.00;5068868;28;20541;-54
2021/06/14 09:03:31;;;;;;;0.50;0.30;;;;;;;24.22;49.12;100823.47;5067152;28;20474;-53
2021/06/14 09:05:58;;;;;;;5.40;0.90;;;;;;;24.02;49.06;100821.44;5064283;28;20525;-54
2021/06/14 09:08:25;;;;;;;0.50;0.23;;;;;;;24.30;49.27;100820.22;5062855;28;21002;-55
2021/06/14 09:10:53;;;;;;;0.40;0.20;;;;;;;24.29;49.20;100815.75;5037808;28;20944;-55
2021/06/14 09:13:31;;;;;;;0.40;0.20;;;;;;;24.11;49.18;100813.44;5069114;28;20978;-54
2021/06/14 09:16:18;;;;;;;0.60;0.50;;;;;;;24.31;49.02;100813.81;5055884;28;20475;-54
2021/06/14 09:18:45;;;;;;;2.00;1.80;;;;;;;25.14;46.81;100809.00;5064600;28;20448;-55
2021/06/14 09:21:30;;;;;;;0.50;0.30;;;;;;;24.69;48.05;100800.78;5039098;28;20529;-54
2021/06/14 09:24:04;;;;;;;0.50;0.30;;;;;;;25.51;46.93;100801.41;5063572;28;20515;-54
2021/06/14 09:26:43;;;;;;;1.20;1.17;;;;;;;25.05;47.35;100797.00;5069039;28;20484;-54
2021/06/14 09:29:13;;;;;;;0.50;0.20;;;;;;;25.24;44.82;100790.94;5067619;28;20962;-54
2021/06/14 09:31:49;;;;;;;0.50;0.20;;;;;;;25.42;46.46;100785.81;5068036;28;20508;-54
2021/06/14 09:34:18;;;;;;;0.50;0.40;;;;;;;25.03;47.58;100785.38;5035363;28;20475;-54
2021/06/14 09:37:03;;;;;;;0.80;0.80;;;;;;;24.90;43.92;100790.03;5055655;28;20927;-54
2021/06/14 09:39:38;;;;;;;0.50;0.20;;;;;;;24.32;46.98;100789.22;5066104;28;20531;-54
2021/06/14 09:42:15;;;;;;;0.93;0.93;;;;;;;24.51;47.91;100775.91;5067649;28;20449;-55
2021/06/14 09:44:43;;;;;;;0.50;0.20;;;;;;;24.31;48.03;100767.59;5066647;28;20753;-54
2021/06/14 09:47:11;;;;;;;0.50;0.20;;;;;;;24.25;48.35;100771.63;5068330;28;20489;-53
2021/06/14 09:49:40;;;;;;;0.50;0.30;;;;;;;25.08;46.73;100771.38;5067831;28;20549;-54
2021/06/14 09:52:20;;;;;;;0.50;0.20;;;;;;;24.51;46.81;100772.31;5066383;28;20465;-54
2021/06/14 09:54:47;;;;;;;0.50;0.40;;;;;;;24.69;46.12;100770.03;5066348;28;21033;-54
2021/06/14 09:57:27;;;;;;;0.50;0.30;;;;;;;24.70;46.84;100760.88;5068018;28;20523;-54
2021/06/14 10:00:04;;;;;;;0.50;0.30;;;;;;;25.60;45.79;100762.50;5067505;28;20503;-54
2021/06/14 10:02:42;;;;;;;0.50;0.20;;;;;;;25.34;45.46;100759.22;5067458;28;21016;-55
2021/06/14 10:05:21;;;;;;;0.50;0.20;;;;;;;25.16;47.35;100762.59;5059423;28;20868;-54
2021/06/14 10:07:54;;;;;;;0.47;0.20;;;;;;;25.28;46.91;100767.91;5067031;28;20946;-53
2021/06/14 10:10:23;;;;;;;0.60;0.40;;;;;;;25.76;46.41;100767.53;5047699;28;20477;-54
2021/06/14 10:12:52;;;;;;;0.50;0.30;;;;;;;25.51;45.47;100757.84;5064959;28;20442;-54
2021/06/14 10:15:31;;;;;;;0.50;0.30;;;;;;;24.72;47.01;100751.59;5055871;28;20883;-54
2021/06/14 10:17:58;;;;;;;0.50;0.20;;;;;;;25.46;45.87;100743.72;5053154;28;20457;-55
2021/06/14 10:20:27;;;;;;;0.50;0.30;;;;;;;25.42;45.85;100746.84;5067175;28;20460;-55
2021/06/14 10:22:57;;;;;;;0.50;0.30;;;;;;;25.73;45.60;100735.13;5041601;28;20569;-54
2021/06/14 10:25:33;;;;;;;0.50;0.30;;;;;;;25.39;44.54;100747.97;5067104;28;20500;-54
2021/06/14 10:28:02;;;;;;;0.73;0.73;;;;;;;26.06;44.11;100736.84;5064299;28;20458;-54
2021/06/14 10:30:29;;;;;;;0.50;0.30;;;;;;;25.71;45.32;100753.47;5063210;28;20435;-55
2021/06/14 10:32:57;;;;;;;0.50;0.20;;;;;;;25.90;43.99;100744.59;5068207;28;20462;-55
2021/06/14 10:35:25;;;;;;;0.50;0.30;;;;;;;25.61;43.44;100741.56;5048757;28;20584;-55
2021/06/14 10:37:53;;;;;;;0.50;0.30;;;;;;;25.55;43.85;100729.34;5067300;28;20547;-54
2021/06/14 10:40:25;;;;;;;0.50;0.30;;;;;;;26.44;41.28;100713.56;5066320;28;20845;-55
2021/06/14 10:42:53;;;;;;;0.63;0.63;;;;;;;26.50;41.50;100716.63;5065768;28;20507;-54
2021/06/14 10:45:26;;;;;;;1.10;0.60;;;;;;;26.02;43.36;100708.09;5065539;28;20462;-54
2021/06/14 10:47:55;;;;;;;0.50;0.30;;;;;;;25.82;44.39;100701.66;5066632;28;20447;-54
2021/06/14 10:50:24;;;;;;;2.70;1.23;;;;;;;25.99;44.58;100711.97;5064992;28;20483;-54
2021/06/14 10:52:51;;;;;;;0.50;0.30;;;;;;;26.87;41.89;100696.97;5065583;28;20421;-55
2021/06/14 10:55:23;;;;;;;0.50;0.37;;;;;;;26.90;42.04;100691.25;5067361;28;20869;-54
2021/06/14 10:57:49;;;;;;;0.50;0.30;;;;;;;26.32;41.76;100682.78;5065711;28;20500;-53
2021/06/14 11:00:23;;;;;;;0.50;0.40;;;;;;;25.51;44.21;100687.06;5067405;28;20450;-54
2021/06/14 11:02:57;;;;;;;0.60;0.50;;;;;;;26.06;44.14;100681.47;5067250;28;20445;-55
2021/06/14 11:05:47;;;;;;;0.50;0.30;;;;;;;26.79;41.75;100686.75;5062403;28;20978;-54
2021/06/14 11:08:22;;;;;;;0.63;0.63;;;;;;;26.94;40.91;100683.63;5063581;28;20483;-55
2021/06/14 11:11:01;;;;;;;0.50;0.30;;;;;;;27.52;40.88;100689.22;5034466;28;20473;-55
2021/06/14 11:13:28;;;;;;;0.50;0.27;;;;;;;26.42;42.81;100686.44;5066007;28;20849;-55
2021/06/14 11:15:58;;;;;;;0.50;0.30;;;;;;;26.56;42.70;100680.63;5066151;28;20450;-53
2021/06/14 11:18:30;;;;;;;0.50;0.30;;;;;;;27.14;41.81;100680.00;5067867;28;20541;-54
2021/06/14 11:21:09;;;;;;;0.70;0.70;;;;;;;26.78;41.17;100675.97;5069755;28;20737;-53
2021/06/14 11:23:38;;;;;;;1.27;1.17;;;;;;;26.20;41.99;100679.28;5070204;28;20948;-53
2021/06/14 11:26:06;;;;;;;0.53;0.37;;;;;;;25.65;42.87;100677.72;5070440;28;20568;-53
2021/06/14 11:28:41;;;;;;;0.60;0.30;;;;;;;27.05;42.35;100662.56;5070759;28;20510;-53
2021/06/14 11:31:27;;;;;;;0.93;0.90;;;;;;;26.61;41.50;100672.03;5047622;28;20424;-54
2021/06/14 11:34:02;;;;;;;0.50;0.20;;;;;;;26.13;42.87;100659.00;5071834;28;20787;-54
2021/06/14 11:36:32;;;;;;;0.50;0.30;;;;;;;26.06;42.72;100670.56;5054907;28;20420;-53
2021/06/14 11:39:10;;;;;;;0.50;0.27;;;;;;;26.09;43.30;100673.88;5071318;28;20798;-53